Terminal Aerodrome Forecast
Issued by NWS

Home | Current Version | Previous Version | Text Only | Print | Product List | Glossary On
Versions: 1 2 3 4 5 6 7 8 9 10 11 12 13 14 15 16
000
FTUS46 KEKA 222339
TAFUKI
TAF
KUKI 222339Z 2300/2324 26005KT P6SM FEW200
     FM230100 36004KT P6SM SCT200
     FM230500 00000KT P6SM SCT200
     FM231400 00000KT P6SM FEW012 SCT200
     FM231700 15006KT P6SM SCT200=

USA.gov is the U.S. government's official web portal to all federal, state and local government web resources and services.